Time;durP1;ratioP1;P1;durP2;ratioP2;P2;SDS_P1;SDS_P2;PMS_P1;PMS_P2;Temp;Humidity;BMP_temperature;BMP_pressure;BME280_temperature;BME280_humidity;BME280_pressure;Samples;Min_cycle;Max_cycle;Signal;HPM_P1;HPM_P2
2022/12/29 00:01:15;;;;;;;40.45;22.50;;;8.00;99.90;;;;;;5012301;28;20038;-68
2022/12/29 00:03:40;;;;;;;31.58;21.60;;;7.90;99.90;;;;;;5012671;28;20034;-68
2022/12/29 00:06:06;;;;;;;31.48;22.73;;;8.00;99.90;;;;;;5012526;28;20033;-68
2022/12/29 00:08:40;;;;;;;36.90;21.20;;;7.90;99.90;;;;;;5013694;28;20042;-68
2022/12/29 00:11:27;;;;;;;33.13;19.92;;;8.00;99.90;;;;;;5012315;28;20049;-68
2022/12/29 00:16:40;;;;;;;34.88;19.48;;;8.00;99.90;;;;;;5010288;28;20032;-68
2022/12/29 00:19:06;;;;;;;37.13;20.70;;;8.00;99.90;;;;;;5004130;28;20029;-68
2022/12/29 00:35:31;;;;;;;;;;;8.00;99.90;;;;;;5012780;28;20049;-68
2022/12/29 00:46:18;;;;;;;30.80;18.75;;;8.00;99.90;;;;;;5013097;28;20041;-68
2022/12/29 00:51:27;;;;;;;27.67;18.80;;;8.00;99.90;;;;;;5004211;28;20160;-68
2022/12/29 00:53:53;;;;;;;36.55;18.38;;;8.10;99.90;;;;;;5011637;28;20116;-68
2022/12/29 00:56:19;;;;;;;30.27;18.10;;;8.10;99.90;;;;;;5012787;28;20033;-68
2022/12/29 00:58:44;;;;;;;21.38;16.52;;;8.20;99.90;;;;;;5012737;28;20419;-68
2022/12/29 01:01:10;;;;;;;30.60;18.13;;;8.20;99.90;;;;;;5005405;28;20092;-68
2022/12/29 01:03:37;;;;;;;29.27;18.25;;;8.20;99.90;;;;;;5001196;28;20034;-68
2022/12/29 01:06:05;;;;;;;28.00;17.80;;;8.20;99.90;;;;;;5013244;28;20029;-68
2022/12/29 01:08:30;;;;;;;31.13;17.30;;;8.30;99.90;;;;;;5011654;28;20398;-69
2022/12/29 01:11:02;;;;;;;21.88;17.02;;;8.30;99.90;;;;;;5008161;28;20014;-68
2022/12/29 01:13:28;;;;;;;24.80;15.45;;;8.30;99.90;;;;;;5000423;28;20500;-68
2022/12/29 01:15:54;;;;;;;22.52;16.48;;;8.40;99.90;;;;;;5013303;28;20030;-68
2022/12/29 01:18:21;;;;;;;21.27;15.13;;;8.40;99.90;;;;;;5013484;28;20047;-68
2022/12/29 01:20:46;;;;;;;22.88;15.93;;;8.50;99.90;;;;;;5013261;28;20065;-68
2022/12/29 01:23:12;;;;;;;21.95;15.68;;;8.50;99.90;;;;;;5012302;28;20061;-68
2022/12/29 01:25:37;;;;;;;24.77;15.32;;;8.50;99.90;;;;;;5012650;28;20029;-68
2022/12/29 01:28:03;;;;;;;24.35;16.95;;;8.50;99.90;;;;;;5012924;28;20116;-68
2022/12/29 01:30:29;;;;;;;23.63;14.55;;;8.50;99.90;;;;;;5013099;28;20068;-68
2022/12/29 01:32:54;;;;;;;26.23;15.65;;;8.50;99.90;;;;;;5011852;28;20039;-68
2022/12/29 01:35:20;;;;;;;24.42;14.80;;;8.50;99.90;;;;;;5012218;28;20430;-68
2022/12/29 01:37:45;;;;;;;29.85;14.20;;;8.60;99.90;;;;;;5012582;28;20080;-68
2022/12/29 01:40:11;;;;;;;15.95;13.13;;;8.50;99.90;;;;;;5012408;28;20029;-68
2022/12/29 01:42:37;;;;;;;22.30;14.15;;;8.50;99.90;;;;;;5012078;28;20038;-68
2022/12/29 01:45:10;;;;;;;18.30;13.48;;;8.60;99.90;;;;;;5013035;28;20026;-68
2022/12/29 01:47:45;;;;;;;23.33;13.70;;;8.60;99.90;;;;;;5013208;28;20100;-68
2022/12/29 01:50:26;;;;;;;15.13;12.25;;;8.70;99.90;;;;;;5012141;28;20065;-68
2022/12/29 01:53:13;;;;;;;18.75;12.05;;;8.70;99.90;;;;;;5012661;28;20366;-68
2022/12/29 01:55:47;;;;;;;18.85;11.95;;;8.70;99.90;;;;;;5013599;28;20439;-68
2022/12/29 01:58:16;;;;;;;22.55;13.57;;;8.70;99.90;;;;;;5012683;28;20033;-68
2022/12/29 02:00:41;;;;;;;26.45;12.05;;;8.70;99.90;;;;;;5011178;28;20036;-68
2022/12/29 02:03:08;;;;;;;15.52;12.65;;;8.80;99.90;;;;;;5012524;28;20105;-68
2022/12/29 02:06:09;;;;;;;17.30;11.90;;;8.80;99.90;;;;;;5013170;28;20022;-68
2022/12/29 02:08:34;;;;;;;21.02;13.18;;;8.70;99.90;;;;;;4993626;28;20034;-69
2022/12/29 02:11:01;;;;;;;17.92;12.35;;;8.70;99.90;;;;;;5007647;28;20022;-68
2022/12/29 02:13:28;;;;;;;18.52;12.93;;;8.70;99.90;;;;;;5017179;28;20026;-68
2022/12/29 02:16:38;;;;;;;18.73;12.63;;;8.80;99.90;;;;;;5016870;28;20553;-68
2022/12/29 02:19:16;;;;;;;19.25;13.07;;;8.80;99.90;;;;;;5004128;28;20105;-68
2022/12/29 02:22:08;;;;;;;18.60;14.50;;;8.70;99.90;;;;;;5015143;28;20030;-68
2022/12/29 02:25:17;;;;;;;18.92;13.52;;;8.80;99.90;;;;;;5012724;28;20505;-68
2022/12/29 02:28:14;;;;;;;20.05;13.65;;;8.80;99.90;;;;;;4995604;28;20042;-68
2022/12/29 02:30:55;;;;;;;20.33;13.75;;;8.80;99.90;;;;;;5007523;28;20428;-68
2022/12/29 02:33:35;;;;;;;21.05;13.10;;;8.80;99.90;;;;;;5015958;28;20049;-68
2022/12/29 02:36:26;;;;;;;19.67;12.77;;;8.80;99.90;;;;;;5014873;28;20030;-68
2022/12/29 02:39:15;;;;;;;14.70;12.02;;;8.80;99.90;;;;;;4998129;28;20581;-68
2022/12/29 02:41:45;;;;;;;15.63;11.50;;;8.90;99.90;;;;;;5015703;28;20068;-68
2022/12/29 02:44:37;;;;;;;16.10;11.55;;;8.90;99.90;;;;;;5016678;28;20033;-68
2022/12/29 02:47:40;;;;;;;28.83;12.32;;;8.90;99.90;;;;;;5015293;28;20034;-68
2022/12/29 02:50:22;;;;;;;21.13;12.02;;;8.90;99.90;;;;;;5015420;28;20026;-68
2022/12/29 02:52:53;;;;;;;17.63;11.73;;;8.90;99.90;;;;;;5001920;28;20394;-68
2022/12/29 02:55:18;;;;;;;14.52;11.45;;;9.00;99.90;;;;;;5015154;28;20029;-68
2022/12/29 02:57:44;;;;;;;13.70;10.95;;;9.10;99.90;;;;;;5016043;28;20026;-68
2022/12/29 03:00:14;;;;;;;16.13;10.77;;;9.10;99.90;;;;;;5015318;28;20030;-68
2022/12/29 03:02:46;;;;;;;13.43;11.05;;;9.10;99.90;;;;;;5015997;28;20022;-68
2022/12/29 03:05:26;;;;;;;17.30;11.32;;;9.20;99.90;;;;;;5015174;28;20076;-68
2022/12/29 03:08:02;;;;;;;18.08;10.82;;;9.10;99.90;;;;;;5014799;28;20026;-68
2022/12/29 03:10:48;;;;;;;13.25;10.73;;;9.20;99.90;;;;;;5015923;28;20025;-68
2022/12/29 03:16:31;;;;;;;24.42;12.13;;;9.20;99.90;;;;;;5015786;28;20080;-68
2022/12/29 03:18:59;;;;;;;;;;;9.30;99.90;;;;;;5016096;28;20022;-68
2022/12/29 03:24:17;;;;;;;14.63;10.35;;;9.20;99.90;;;;;;5014746;28;20080;-68
2022/12/29 03:26:45;;;;;;;16.27;10.13;;;9.20;99.90;;;;;;5015522;28;20367;-68
2022/12/29 03:29:13;;;;;;;13.93;9.63;;;9.20;99.90;;;;;;5071560;23;20046;-70
2022/12/29 03:31:40;;;;;;;16.85;9.77;;;9.20;99.90;;;;;;5015599;28;20411;-71
2022/12/29 03:34:06;;;;;;;16.17;9.65;;;9.20;99.90;;;;;;5014602;28;20022;-71
2022/12/29 03:36:45;;;;;;;15.20;9.77;;;9.30;99.90;;;;;;5011893;28;20069;-71
2022/12/29 03:39:13;;;;;;;16.27;10.07;;;9.20;99.90;;;;;;4996140;28;20062;-71
2022/12/29 03:41:42;;;;;;;16.45;9.13;;;9.20;99.90;;;;;;5001235;28;20022;-71
2022/12/29 03:44:08;;;;;;;13.70;9.35;;;9.30;99.90;;;;;;5013852;28;20080;-71
2022/12/29 03:46:34;;;;;;;15.77;9.07;;;9.30;99.90;;;;;;5013956;28;20133;-71
2022/12/29 03:48:59;;;;;;;12.23;8.60;;;9.30;99.90;;;;;;5013905;28;20592;-70
2022/12/29 03:51:25;;;;;;;10.77;8.25;;;9.30;99.90;;;;;;5014550;28;20497;-71
2022/12/29 03:53:50;;;;;;;12.25;9.10;;;9.30;99.90;;;;;;5013792;28;20034;-71
2022/12/29 03:56:16;;;;;;;13.73;9.25;;;9.30;99.90;;;;;;5015162;28;20081;-71
2022/12/29 03:58:41;;;;;;;14.57;9.07;;;9.30;99.90;;;;;;5017369;28;20026;-71
2022/12/29 04:01:07;;;;;;;13.63;10.30;;;9.30;99.90;;;;;;5014944;28;20076;-71
2022/12/29 04:03:33;;;;;;;16.33;10.75;;;9.30;99.90;;;;;;5014082;28;20080;-71
2022/12/29 04:05:58;;;;;;;14.77;10.25;;;9.30;99.90;;;;;;5014788;28;20117;-72
2022/12/29 04:08:24;;;;;;;11.85;10.27;;;9.40;99.90;;;;;;5014227;28;20109;-71
2022/12/29 04:10:50;;;;;;;13.65;10.20;;;9.30;99.90;;;;;;5014821;28;20022;-71
2022/12/29 04:13:15;;;;;;;15.02;10.20;;;9.30;99.90;;;;;;5013475;28;20026;-71
2022/12/29 04:15:43;;;;;;;15.98;10.02;;;9.30;99.90;;;;;;5014158;28;20040;-71
2022/12/29 04:18:09;;;;;;;14.57;10.38;;;9.30;99.90;;;;;;4999685;28;20069;-71
2022/12/29 04:23:35;;;;;;;19.75;9.40;;;9.40;99.90;;;;;;4986573;28;20520;-71
2022/12/29 04:26:01;;;;;;;15.45;9.57;;;9.40;99.90;;;;;;5014634;28;20026;-70
2022/12/29 04:28:26;;;;;;;14.13;9.95;;;9.40;99.90;;;;;;5014450;28;20489;-72
2022/12/29 04:30:52;;;;;;;11.63;8.68;;;9.40;99.90;;;;;;5014381;28;20041;-71
2022/12/29 04:33:18;;;;;;;14.65;9.80;;;9.40;99.90;;;;;;5013465;28;20029;-71
2022/12/29 04:35:44;;;;;;;10.52;9.00;;;9.50;99.90;;;;;;5013287;28;20100;-71
2022/12/29 04:38:10;;;;;;;13.02;8.73;;;9.50;99.90;;;;;;5000715;28;20176;-72
2022/12/29 04:40:39;;;;;;;10.68;8.30;;;9.40;99.90;;;;;;5003547;28;20392;-71
2022/12/29 04:43:05;;;;;;;12.40;8.30;;;9.50;99.90;;;;;;5004764;28;20025;-71
2022/12/29 04:45:30;;;;;;;12.98;9.02;;;9.40;99.90;;;;;;5013043;28;20485;-71
2022/12/29 04:47:56;;;;;;;16.10;8.00;;;9.50;99.90;;;;;;5009102;28;20038;-72
2022/12/29 04:50:21;;;;;;;12.13;8.15;;;9.40;99.90;;;;;;4999037;28;20033;-71
2022/12/29 04:52:47;;;;;;;9.73;8.20;;;9.40;99.90;;;;;;5012987;28;20478;-71
2022/12/29 04:55:13;;;;;;;11.40;8.45;;;9.40;99.90;;;;;;5013231;28;20057;-71
2022/12/29 04:57:38;;;;;;;12.40;7.88;;;9.40;99.90;;;;;;5006691;28;20034;-71
2022/12/29 05:00:05;;;;;;;12.40;9.15;;;9.40;99.90;;;;;;5005892;28;20837;-71
2022/12/29 05:02:31;;;;;;;12.25;9.23;;;9.40;99.90;;;;;;5011051;28;20029;-71
2022/12/29 05:04:56;;;;;;;12.68;9.13;;;9.40;99.90;;;;;;5013227;28;20126;-71
2022/12/29 05:07:22;;;;;;;14.10;10.38;;;9.30;99.90;;;;;;5013953;28;20025;-71
2022/12/29 05:09:47;;;;;;;16.08;9.52;;;9.30;99.90;;;;;;5012670;28;20042;-72
2022/12/29 05:12:13;;;;;;;13.52;9.70;;;9.30;99.90;;;;;;4991562;28;20113;-71
2022/12/29 05:14:38;;;;;;;13.00;8.48;;;9.30;99.90;;;;;;5015405;28;20025;-71
2022/12/29 05:17:04;;;;;;;11.93;8.38;;;9.30;99.90;;;;;;5009764;28;20056;-71
2022/12/29 05:19:30;;;;;;;18.42;9.18;;;9.10;99.90;;;;;;5007559;28;20378;-71
2022/12/29 05:21:55;;;;;;;17.70;8.55;;;9.10;99.90;;;;;;5011892;28;20041;-71
2022/12/29 05:24:21;;;;;;;17.35;7.38;;;9.00;99.90;;;;;;5009977;28;20033;-72
2022/12/29 05:26:47;;;;;;;10.68;4.95;;;8.90;99.90;;;;;;5011703;28;20374;-71
2022/12/29 05:29:12;;;;;;;7.72;4.47;;;8.80;99.90;;;;;;5009410;28;20160;-71
2022/12/29 05:31:38;;;;;;;15.32;3.83;;;8.70;99.90;;;;;;5010191;28;20034;-71
2022/12/29 05:34:04;;;;;;;13.45;3.00;;;8.60;99.90;;;;;;5011121;28;20505;-71
2022/12/29 05:36:30;;;;;;;13.55;2.50;;;8.50;99.90;;;;;;5009237;28;20018;-72
2022/12/29 05:38:55;;;;;;;5.90;1.73;;;8.40;99.90;;;;;;5009637;28;20033;-71
2022/12/29 05:41:21;;;;;;;18.45;3.13;;;8.40;99.90;;;;;;5011449;28;20371;-71
2022/12/29 05:43:46;;;;;;;10.75;2.08;;;8.40;99.90;;;;;;5009021;28;20598;-71
2022/12/29 05:46:12;;;;;;;17.70;1.70;;;8.40;99.90;;;;;;5009950;28;20030;-71
2022/12/29 05:48:37;;;;;;;6.00;1.58;;;8.40;99.90;;;;;;5016819;28;20029;-72
2022/12/29 05:51:03;;;;;;;22.80;1.92;;;8.40;99.90;;;;;;5013122;28;20104;-71
2022/12/29 05:53:29;;;;;;;9.32;1.73;;;8.40;99.90;;;;;;5013275;28;20022;-71
2022/12/29 05:55:54;;;;;;;8.32;1.45;;;8.40;99.90;;;;;;5013040;28;20034;-71
2022/12/29 05:58:20;;;;;;;9.93;1.50;;;8.30;99.90;;;;;;5011449;28;20374;-71
2022/12/29 06:00:45;;;;;;;19.80;2.25;;;8.30;99.90;;;;;;5014787;28;20489;-72
2022/12/29 06:03:11;;;;;;;13.90;1.70;;;8.40;99.90;;;;;;5011043;28;20088;-72
2022/12/29 06:05:37;;;;;;;11.95;1.75;;;8.30;99.90;;;;;;5015548;28;20048;-71
2022/12/29 06:08:02;;;;;;;28.25;2.45;;;8.30;99.90;;;;;;5012970;28;20030;-72
2022/12/29 06:10:28;;;;;;;11.35;2.35;;;8.30;99.90;;;;;;5012959;28;20505;-71
2022/12/29 06:12:53;;;;;;;21.45;2.78;;;8.30;99.90;;;;;;5013234;28;20028;-71
2022/12/29 06:15:19;;;;;;;23.77;3.22;;;8.30;99.90;;;;;;5012065;28;20034;-71
2022/12/29 06:17:44;;;;;;;18.42;2.42;;;8.30;99.90;;;;;;5014799;28;20026;-71
2022/12/29 06:20:10;;;;;;;22.95;2.85;;;8.30;99.90;;;;;;5013305;28;20493;-71
2022/12/29 06:22:36;;;;;;;22.35;3.38;;;8.20;99.90;;;;;;5013655;28;20389;-71
2022/12/29 06:25:02;;;;;;;20.95;3.42;;;8.20;99.90;;;;;;5002975;28;20105;-71
2022/12/29 06:27:28;;;;;;;29.33;3.65;;;8.20;99.90;;;;;;5007189;28;20460;-71
2022/12/29 06:29:54;;;;;;;28.85;3.15;;;8.20;99.90;;;;;;5014611;28;20041;-71
2022/12/29 06:32:20;;;;;;;26.23;2.47;;;8.20;99.90;;;;;;5015704;28;20030;-71
2022/12/29 06:34:46;;;;;;;21.80;3.55;;;8.20;99.90;;;;;;5015046;28;20035;-71
2022/12/29 06:37:14;;;;;;;32.15;3.92;;;8.10;99.90;;;;;;5015937;28;20030;-71
2022/12/29 06:39:40;;;;;;;27.85;3.58;;;8.10;99.90;;;;;;5014037;28;20057;-71
2022/12/29 06:42:05;;;;;;;24.10;2.97;;;8.10;99.90;;;;;;5014868;28;20022;-71
2022/12/29 06:44:31;;;;;;;28.77;4.45;;;8.10;99.90;;;;;;5013583;28;20112;-71
2022/12/29 06:46:57;;;;;;;26.05;3.80;;;8.10;99.90;;;;;;5015677;28;20036;-72
2022/12/29 06:49:23;;;;;;;23.98;3.75;;;8.10;99.90;;;;;;5014858;28;20030;-71
2022/12/29 06:51:48;;;;;;;31.75;3.42;;;8.20;99.90;;;;;;5010840;28;20033;-72
2022/12/29 06:54:14;;;;;;;19.70;3.63;;;8.20;99.90;;;;;;5015458;28;20032;-72
2022/12/29 06:56:39;;;;;;;27.83;3.75;;;8.20;99.90;;;;;;5011631;28;20021;-72
2022/12/29 06:59:05;;;;;;;20.52;4.00;;;8.30;99.90;;;;;;5013629;28;20026;-71
2022/12/29 07:01:31;;;;;;;29.75;3.75;;;8.30;99.90;;;;;;5014073;28;20030;-71
2022/12/29 07:03:57;;;;;;;19.63;3.85;;;8.40;99.90;;;;;;5012719;28;20030;-71
2022/12/29 07:06:23;;;;;;;27.45;4.63;;;8.40;99.90;;;;;;5012879;28;20030;-71
2022/12/29 07:08:48;;;;;;;19.17;3.45;;;8.40;99.90;;;;;;5011421;28;20033;-73
2022/12/29 07:11:14;;;;;;;14.57;3.78;;;8.50;99.90;;;;;;5011200;28;20032;-71
2022/12/29 07:13:40;;;;;;;19.13;3.38;;;8.40;99.90;;;;;;5013881;28;20025;-71
2022/12/29 07:16:07;;;;;;;22.98;3.92;;;8.40;99.90;;;;;;5011197;28;20040;-71
2022/12/29 07:18:32;;;;;;;17.42;3.83;;;8.40;99.90;;;;;;5013846;28;20481;-71
2022/12/29 07:20:58;;;;;;;29.83;5.20;;;8.50;99.90;;;;;;5013304;28;20037;-72
2022/12/29 07:23:24;;;;;;;21.40;3.55;;;8.50;99.90;;;;;;5011507;28;20033;-71
2022/12/29 07:25:49;;;;;;;30.65;4.40;;;8.50;99.90;;;;;;5013378;28;20028;-71
2022/12/29 07:28:15;;;;;;;33.83;4.38;;;8.50;99.90;;;;;;5010028;28;20046;-71
2022/12/29 07:30:40;;;;;;;20.35;4.35;;;8.50;99.90;;;;;;5013789;28;20029;-71
2022/12/29 07:33:06;;;;;;;34.03;3.90;;;8.50;99.90;;;;;;5011140;28;20030;-72
2022/12/29 07:35:34;;;;;;;22.58;3.30;;;8.40;99.90;;;;;;5008944;28;20026;-71
2022/12/29 07:37:59;;;;;;;33.58;5.82;;;8.40;99.90;;;;;;5012746;28;20394;-72
2022/12/29 07:40:25;;;;;;;28.42;3.53;;;8.40;99.90;;;;;;5011895;28;20026;-71
2022/12/29 07:42:50;;;;;;;21.33;3.78;;;8.40;99.90;;;;;;5013519;28;20105;-71
2022/12/29 07:45:16;;;;;;;26.70;3.35;;;8.50;99.90;;;;;;5011508;28;20037;-72
2022/12/29 07:47:41;;;;;;;37.20;4.75;;;8.50;99.90;;;;;;5010518;28;20061;-71
2022/12/29 07:50:07;;;;;;;24.45;4.63;;;8.50;99.90;;;;;;5010656;28;20029;-71
2022/12/29 07:52:32;;;;;;;25.15;4.38;;;8.50;99.90;;;;;;5012243;28;20421;-71
2022/12/29 07:54:58;;;;;;;24.50;3.72;;;8.50;99.90;;;;;;5012074;28;20033;-71
2022/12/29 07:57:23;;;;;;;21.55;3.47;;;8.60;99.90;;;;;;5012857;28;20482;-71
2022/12/29 07:59:49;;;;;;;26.48;3.83;;;8.60;99.90;;;;;;5011338;28;20037;-71
2022/12/29 08:02:15;;;;;;;34.67;4.85;;;8.60;99.90;;;;;;5010144;28;20088;-71
2022/12/29 08:04:40;;;;;;;30.10;5.03;;;8.50;99.90;;;;;;5011638;28;20030;-71
2022/12/29 08:07:06;;;;;;;27.67;3.97;;;8.40;99.90;;;;;;5012990;28;20018;-71
2022/12/29 08:09:31;;;;;;;26.85;4.95;;;8.50;99.90;;;;;;5010712;28;20021;-71
2022/12/29 08:11:57;;;;;;;35.97;4.68;;;8.40;99.90;;;;;;5011424;28;20041;-72
2022/12/29 08:14:22;;;;;;;32.85;4.03;;;8.50;99.90;;;;;;5011367;28;20085;-71
2022/12/29 08:16:48;;;;;;;52.40;5.68;;;8.50;99.90;;;;;;5010933;28;20477;-71
2022/12/29 08:19:14;;;;;;;32.25;4.72;;;8.60;99.90;;;;;;5018261;28;20037;-71
2022/12/29 08:21:39;;;;;;;29.55;4.28;;;8.60;99.90;;;;;;5013493;28;20032;-71
2022/12/29 08:24:06;;;;;;;36.28;4.50;;;8.60;99.90;;;;;;5012123;28;20054;-72
2022/12/29 08:26:31;;;;;;;34.20;4.32;;;8.50;99.90;;;;;;5012205;28;20041;-71
2022/12/29 08:28:57;;;;;;;49.55;6.88;;;8.50;99.90;;;;;;5012437;28;20034;-71
2022/12/29 08:31:23;;;;;;;39.00;5.28;;;8.50;99.90;;;;;;5011577;28;20041;-71
2022/12/29 08:33:49;;;;;;;49.53;6.95;;;8.60;99.90;;;;;;5010507;28;20030;-71
2022/12/29 08:36:15;;;;;;;34.65;5.85;;;8.50;99.90;;;;;;5011224;28;20056;-71
2022/12/29 08:38:41;;;;;;;40.28;4.93;;;8.60;99.90;;;;;;5011938;28;20506;-71
2022/12/29 08:41:06;;;;;;;38.95;6.32;;;8.70;99.90;;;;;;5011933;28;20401;-71
2022/12/29 08:43:32;;;;;;;42.75;5.78;;;8.70;99.90;;;;;;5009798;28;20121;-72
2022/12/29 08:46:00;;;;;;;38.33;5.13;;;8.70;99.90;;;;;;5011964;28;20068;-72
2022/12/29 08:48:26;;;;;;;39.75;5.20;;;8.70;99.90;;;;;;5006524;28;20033;-72
2022/12/29 08:50:52;;;;;;;29.38;5.10;;;8.60;99.90;;;;;;5011338;28;20034;-71
2022/12/29 08:53:18;;;;;;;34.25;4.40;;;8.50;99.90;;;;;;5008735;28;20363;-71
2022/12/29 08:55:54;;;;;;;37.85;6.43;;;8.50;99.90;;;;;;5012986;28;20026;-71
2022/12/29 08:58:19;;;;;;;33.22;5.38;;;8.50;99.90;;;;;;5005717;28;20402;-72
2022/12/29 09:00:45;;;;;;;42.70;5.53;;;8.50;99.90;;;;;;5011887;28;20030;-72
2022/12/29 09:03:10;;;;;;;44.88;6.22;;;8.50;99.90;;;;;;5009503;28;20038;-71
2022/12/29 09:05:36;;;;;;;50.90;5.22;;;8.50;99.90;;;;;;5011853;28;20026;-71
2022/12/29 09:08:01;;;;;;;42.53;4.97;;;8.50;99.90;;;;;;5010234;28;20026;-71
2022/12/29 09:10:27;;;;;;;41.85;5.47;;;8.50;99.90;;;;;;5011510;28;20393;-71
2022/12/29 09:12:52;;;;;;;34.40;4.80;;;8.50;99.90;;;;;;5011637;28;20107;-72
2022/12/29 09:15:18;;;;;;;38.83;5.70;;;8.40;99.90;;;;;;5012335;28;20101;-72
2022/12/29 09:17:46;;;;;;;30.20;4.93;;;8.50;99.90;;;;;;5009679;28;20022;-72
2022/12/29 09:20:14;;;;;;;42.92;5.25;;;8.40;99.90;;;;;;5006417;28;20037;-72
2022/12/29 09:22:40;;;;;;;42.75;5.05;;;8.50;99.90;;;;;;5003172;28;20030;-72
2022/12/29 09:25:06;;;;;;;35.88;4.72;;;8.50;99.90;;;;;;5005574;28;20034;-72
2022/12/29 09:27:31;;;;;;;37.45;4.35;;;8.50;99.90;;;;;;5005492;28;20034;-71
2022/12/29 09:29:57;;;;;;;36.40;5.57;;;8.50;99.90;;;;;;5008911;28;20030;-72
2022/12/29 09:32:23;;;;;;;31.48;4.38;;;8.60;99.90;;;;;;5007082;28;20049;-72
2022/12/29 09:34:48;;;;;;;29.63;4.43;;;8.60;99.90;;;;;;5008501;28;20041;-71
2022/12/29 09:37:14;;;;;;;41.35;5.53;;;8.70;99.90;;;;;;5009613;28;20032;-71
2022/12/29 09:39:40;;;;;;;52.35;6.43;;;8.70;99.90;;;;;;5011617;28;20053;-71
2022/12/29 09:42:17;;;;;;;37.22;5.22;;;8.70;99.90;;;;;;5008808;28;20516;-74
2022/12/29 09:45:14;;;;;;;58.88;5.93;;;8.70;99.90;;;;;;5005843;28;20482;-71
2022/12/29 09:47:42;;;;;;;43.38;4.95;;;8.70;99.90;;;;;;5008247;28;20442;-72
2022/12/29 09:50:22;;;;;;;33.95;5.22;;;8.80;99.90;;;;;;5036805;23;20039;-68
2022/12/29 09:53:11;;;;;;;47.03;6.88;;;8.80;99.90;;;;;;4987287;28;20030;-68
2022/12/29 09:55:48;;;;;;;38.20;5.20;;;8.80;99.90;;;;;;4957558;28;20121;-67
2022/12/29 09:58:22;;;;;;;49.65;5.60;;;8.90;99.90;;;;;;4989579;28;20498;-68
2022/12/29 10:01:03;;;;;;;40.65;5.22;;;9.00;99.90;;;;;;4988646;28;20087;-68
2022/12/29 10:04:02;;;;;;;48.10;6.10;;;9.10;99.90;;;;;;4990313;28;20023;-68
2022/12/29 10:06:51;;;;;;;45.72;6.57;;;9.10;99.90;;;;;;4975542;28;20046;-67
2022/12/29 10:09:29;;;;;;;44.28;6.15;;;9.10;99.90;;;;;;4988766;28;20039;-67
2022/12/29 10:12:20;;;;;;;35.83;6.15;;;9.10;99.90;;;;;;4987807;28;20034;-68
2022/12/29 10:15:08;;;;;;;37.92;4.85;;;9.10;99.90;;;;;;4988525;28;20042;-67
2022/12/29 10:17:43;;;;;;;45.78;6.53;;;9.00;99.90;;;;;;4970471;28;20419;-67
2022/12/29 10:20:35;;;;;;;34.20;5.22;;;9.00;99.90;;;;;;4962520;28;20121;-67
2022/12/29 10:23:19;;;;;;;25.42;4.35;;;9.00;99.90;;;;;;4960587;28;20117;-67
2022/12/29 10:25:45;;;;;;;36.80;4.93;;;9.00;99.90;;;;;;4964175;28;20661;-68
2022/12/29 10:28:27;;;;;;;32.10;4.88;;;9.00;99.90;;;;;;4970415;28;20127;-67
2022/12/29 10:30:54;;;;;;;47.30;4.95;;;9.00;99.90;;;;;;4965983;28;20024;-67
2022/12/29 10:33:35;;;;;;;44.78;5.60;;;9.00;99.90;;;;;;4971985;28;20062;-67
2022/12/29 10:36:15;;;;;;;34.72;4.93;;;9.00;99.90;;;;;;4972916;28;20471;-68
2022/12/29 10:39:12;;;;;;;36.22;5.07;;;8.90;99.90;;;;;;4964740;28;20119;-67
2022/12/29 10:41:52;;;;;;;40.63;4.72;;;8.80;99.90;;;;;;4952662;28;20053;-67
2022/12/29 10:44:20;;;;;;;38.78;6.47;;;8.70;99.90;;;;;;4971260;28;20482;-67
2022/12/29 10:46:57;;;;;;;48.65;5.95;;;8.60;99.90;;;;;;4971215;28;20395;-67
2022/12/29 10:49:25;;;;;;;26.08;4.43;;;8.60;99.90;;;;;;4965794;28;20037;-68
2022/12/29 10:51:55;;;;;;;41.47;5.03;;;8.50;99.90;;;;;;4970207;28;20450;-67
2022/12/29 10:54:40;;;;;;;29.17;5.28;;;8.50;99.90;;;;;;4974755;28;20019;-67
2022/12/29 10:57:12;;;;;;;41.00;5.03;;;8.40;99.90;;;;;;4972503;28;20057;-67
2022/12/29 10:59:38;;;;;;;36.65;5.18;;;8.40;99.90;;;;;;4969319;28;20434;-68
2022/12/29 11:02:10;;;;;;;35.90;5.95;;;8.30;99.90;;;;;;4973635;28;20034;-68
2022/12/29 11:04:42;;;;;;;36.58;4.40;;;8.30;99.90;;;;;;4974191;28;20042;-67
2022/12/29 11:07:09;;;;;;;35.97;5.38;;;8.30;99.90;;;;;;4972341;28;20023;-67
2022/12/29 11:09:37;;;;;;;39.63;5.22;;;8.20;99.90;;;;;;4974796;28;20041;-68
2022/12/29 11:12:24;;;;;;;40.97;6.13;;;8.20;99.90;;;;;;4966491;28;20510;-68
2022/12/29 11:15:08;;;;;;;31.23;4.00;;;8.20;99.90;;;;;;4972828;28;20030;-68
2022/12/29 11:17:50;;;;;;;42.15;6.50;;;8.20;99.90;;;;;;4967599;28;20027;-68
2022/12/29 11:20:38;;;;;;;39.65;5.20;;;8.20;99.90;;;;;;4972024;28;20030;-68
2022/12/29 11:23:20;;;;;;;46.10;5.38;;;8.20;99.90;;;;;;4978068;28;20478;-68
2022/12/29 11:25:45;;;;;;;45.80;6.47;;;8.10;99.90;;;;;;4974754;28;20035;-68
2022/12/29 11:28:16;;;;;;;34.97;5.70;;;8.20;99.90;;;;;;4972615;28;20478;-68
2022/12/29 11:30:42;;;;;;;34.33;6.20;;;8.10;99.90;;;;;;4966477;28;20021;-68
2022/12/29 11:33:09;;;;;;;46.55;6.32;;;8.10;99.90;;;;;;4967478;28;20027;-67
2022/12/29 11:35:44;;;;;;;38.97;5.35;;;8.10;99.90;;;;;;4965486;28;20034;-68
2022/12/29 11:38:22;;;;;;;44.17;6.72;;;8.10;99.90;;;;;;4963214;28;20030;-68
2022/12/29 11:40:48;;;;;;;34.63;5.13;;;8.20;99.90;;;;;;4973211;28;20097;-67
2022/12/29 11:43:26;;;;;;;46.58;5.47;;;8.20;99.90;;;;;;4974955;28;20460;-68
2022/12/29 11:45:52;;;;;;;48.88;6.32;;;8.30;99.90;;;;;;4970650;28;20023;-68
2022/12/29 11:48:20;;;;;;;32.33;4.55;;;8.30;99.90;;;;;;4969641;28;20134;-68
2022/12/29 11:51:00;;;;;;;50.83;6.20;;;8.40;99.90;;;;;;4969876;28;20041;-67
2022/12/29 11:53:57;;;;;;;36.88;4.80;;;8.40;99.90;;;;;;4970418;28;20031;-67
2022/12/29 11:56:42;;;;;;;37.03;4.97;;;8.50;99.90;;;;;;4968368;28;20049;-68
2022/12/29 11:59:37;;;;;;;40.53;5.70;;;8.50;99.90;;;;;;4968019;28;20035;-68
2022/12/29 12:02:26;;;;;;;43.70;6.50;;;8.50;99.90;;;;;;4973019;28;20430;-67
2022/12/29 12:05:05;;;;;;;34.45;5.32;;;8.50;99.90;;;;;;4934073;28;20117;-68
2022/12/29 12:07:42;;;;;;;40.83;4.97;;;8.50;99.90;;;;;;4984838;28;20037;-68
2022/12/29 12:10:16;;;;;;;28.17;4.43;;;8.50;99.90;;;;;;4975370;28;20045;-68
2022/12/29 12:12:51;;;;;;;31.33;4.43;;;8.50;99.90;;;;;;4983624;28;20042;-67
2022/12/29 12:15:25;;;;;;;36.20;4.43;;;8.50;99.90;;;;;;4971924;28;20028;-68
2022/12/29 12:18:01;;;;;;;44.70;7.28;;;8.40;99.90;;;;;;4974112;28;20023;-67
2022/12/29 12:20:51;;;;;;;39.90;4.80;;;8.40;99.90;;;;;;4974426;28;20109;-68
2022/12/29 12:23:27;;;;;;;29.67;5.15;;;8.30;99.90;;;;;;4972889;28;20113;-68
2022/12/29 12:26:04;;;;;;;40.58;5.90;;;8.30;99.90;;;;;;4967297;28;20027;-68
2022/12/29 12:28:55;;;;;;;32.47;4.85;;;8.20;99.90;;;;;;4969570;28;20034;-68
2022/12/29 12:31:52;;;;;;;28.75;4.30;;;8.10;99.90;;;;;;4969168;28;20047;-67
2022/12/29 12:34:32;;;;;;;37.20;4.55;;;8.20;99.90;;;;;;4968509;28;20042;-67
2022/12/29 12:37:34;;;;;;;26.52;4.95;;;8.10;99.90;;;;;;4966588;28;20029;-67
2022/12/29 12:40:32;;;;;;;32.50;4.57;;;8.10;99.90;;;;;;4967605;28;20030;-68
2022/12/29 12:43:10;;;;;;;30.92;4.50;;;8.00;99.90;;;;;;4969371;28;20088;-67
2022/12/29 12:46:07;;;;;;;28.52;4.53;;;8.00;99.90;;;;;;4971112;28;20027;-67
2022/12/29 12:49:03;;;;;;;38.00;5.97;;;8.00;99.90;;;;;;4971581;28;20027;-67
2022/12/29 12:51:52;;;;;;;45.90;7.18;;;8.00;99.90;;;;;;4951853;28;20030;-67
2022/12/29 12:54:36;;;;;;;31.88;5.32;;;8.00;99.90;;;;;;4935895;28;20041;-67
2022/12/29 12:57:20;;;;;;;36.10;6.05;;;7.90;99.90;;;;;;4971281;28;20045;-67
2022/12/29 13:00:06;;;;;;;48.58;6.43;;;7.90;99.90;;;;;;4973720;28;20038;-68
2022/12/29 13:02:38;;;;;;;48.28;6.72;;;7.80;99.90;;;;;;4972676;28;20039;-67
2022/12/29 13:05:23;;;;;;;55.65;6.82;;;7.80;99.90;;;;;;4972191;28;20026;-67
2022/12/29 13:08:17;;;;;;;51.45;7.43;;;7.70;99.90;;;;;;4971381;28;20429;-67
2022/12/29 13:10:51;;;;;;;44.58;7.22;;;7.70;99.90;;;;;;4968557;28;20399;-67
2022/12/29 13:13:48;;;;;;;46.53;6.68;;;7.70;99.90;;;;;;4971772;28;20058;-67
2022/12/29 13:16:31;;;;;;;55.15;8.57;;;7.60;99.90;;;;;;4971331;28;20030;-67
2022/12/29 13:19:04;;;;;;;69.57;9.75;;;7.60;99.90;;;;;;4973200;28;20022;-67
2022/12/29 13:22:01;;;;;;;90.88;10.68;;;7.60;99.90;;;;;;4986018;28;20114;-67
2022/12/29 13:24:40;;;;;;;85.50;10.38;;;7.50;99.90;;;;;;4971067;28;20483;-67
2022/12/29 13:27:20;;;;;;;91.45;11.23;;;7.50;99.90;;;;;;4973841;28;20023;-67
2022/12/29 13:30:00;;;;;;;93.00;11.65;;;7.50;99.90;;;;;;4978189;28;20027;-67
2022/12/29 13:32:43;;;;;;;89.82;12.55;;;7.50;99.90;;;;;;4974921;28;20494;-67
2022/12/29 13:35:27;;;;;;;98.03;12.13;;;7.50;99.90;;;;;;4974622;28;20034;-67
2022/12/29 13:38:29;;;;;;;88.40;12.15;;;7.50;99.90;;;;;;4976919;28;20031;-69
2022/12/29 13:41:13;;;;;;;102.43;13.35;;;7.40;99.90;;;;;;4973127;28;20047;-69
2022/12/29 13:43:42;;;;;;;112.78;14.02;;;7.40;99.90;;;;;;4974433;28;20487;-69
2022/12/29 13:46:19;;;;;;;109.28;10.43;;;7.50;99.90;;;;;;4973952;28;20446;-69